createdAt,value
2023-03-26T00:04:39.077Z,79.66
2023-03-26T00:09:44.276Z,79.70
2023-03-26T00:14:49.113Z,79.63
2023-03-26T00:19:54.586Z,79.80
2023-03-26T00:25:00.095Z,79.93
2023-03-26T00:30:04.989Z,79.64
2023-03-26T00:35:09.930Z,79.76
2023-03-26T00:40:14.356Z,79.73
2023-03-26T00:45:23.056Z,79.82
2023-03-26T00:50:26.795Z,79.89
2023-03-26T00:55:34.962Z,79.88
2023-03-26T01:00:49.579Z,79.79
2023-03-26T01:06:10.570Z,79.77
2023-03-26T01:11:21.583Z,79.69
2023-03-26T01:16:28.709Z,79.71
2023-03-26T01:21:34.820Z,79.95
2023-03-26T01:26:48.469Z,79.88
2023-03-26T01:32:33.881Z,79.57
2023-03-26T01:37:52.788Z,79.56
2023-03-26T01:43:19.107Z,79.52
2023-03-26T01:48:35.362Z,79.46
2023-03-26T01:53:46.313Z,79.22
2023-03-26T01:59:04.229Z,79.01
2023-03-26T02:04:20.072Z,79.07
2023-03-26T02:09:32.242Z,78.81
2023-03-26T02:14:38.191Z,78.98
2023-03-26T02:19:43.100Z,79.18
2023-03-26T02:24:47.294Z,79.20
2023-03-26T02:29:50.861Z,78.96
2023-03-26T02:34:54.798Z,78.85
2023-03-26T02:39:59.186Z,79.06
2023-03-26T02:45:03.802Z,78.43
2023-03-26T02:50:09.220Z,78.73
2023-03-26T02:55:12.815Z,78.82
2023-03-26T03:00:17.455Z,78.64
2023-03-26T03:05:21.692Z,78.71
2023-03-26T03:10:26.642Z,78.45
2023-03-26T03:15:30.261Z,78.41
2023-03-26T03:20:35.497Z,78.39
2023-03-26T03:25:41.503Z,78.62
2023-03-26T03:30:45.169Z,78.35
2023-03-26T03:35:49.982Z,78.60
2023-03-26T03:40:55.765Z,78.33
2023-03-26T03:46:00.751Z,78.34
2023-03-26T03:51:05.742Z,78.62
2023-03-26T03:56:15.971Z,78.42
2023-03-26T04:01:23.112Z,78.78
2023-03-26T04:06:30.519Z,78.84
2023-03-26T04:11:34.074Z,78.90
2023-03-26T04:16:37.862Z,79.18
2023-03-26T04:21:43.070Z,79.81
2023-03-26T04:26:48.357Z,79.91
2023-03-26T04:31:59.140Z,80.12
2023-03-26T04:37:03.522Z,80.29
2023-03-26T04:42:10.431Z,80.27
2023-03-26T04:47:14.287Z,80.64
2023-03-26T04:52:18.009Z,80.66
2023-03-26T04:57:30.734Z,80.98
2023-03-26T05:02:35.129Z,80.81
2023-03-26T05:07:38.566Z,80.94
2023-03-26T05:12:42.827Z,81.17
2023-03-26T05:17:47.123Z,81.16
2023-03-26T05:22:51.250Z,81.32
2023-03-26T05:27:54.826Z,81.27
2023-03-26T05:32:58.060Z,81.15
2023-03-26T05:38:03.096Z,81.34
2023-03-26T05:43:06.684Z,81.08
2023-03-26T05:48:10.254Z,81.34
2023-03-26T05:53:13.458Z,81.15
2023-03-26T05:58:17.542Z,81.51
2023-03-26T06:03:23.506Z,81.27
2023-03-26T06:08:27.985Z,81.31
2023-03-26T06:13:31.732Z,81.16
2023-03-26T06:18:35.664Z,81.29
2023-03-26T06:23:40.248Z,80.87
2023-03-26T06:28:48.901Z,81.06
2023-03-26T06:33:53.518Z,80.94
2023-03-26T06:38:57.104Z,80.44
2023-03-26T06:44:01.177Z,79.91
2023-03-26T06:49:04.701Z,79.54
2023-03-26T06:54:08.192Z,79.41
2023-03-26T06:59:12.994Z,78.97
2023-03-26T07:04:18.100Z,78.68
2023-03-26T07:09:26.738Z,78.57
2023-03-26T07:14:33.470Z,78.16
2023-03-26T07:19:37.860Z,77.64
2023-03-26T07:24:43.516Z,77.30
2023-03-26T07:30:04.930Z,77.24
2023-03-26T07:35:31.125Z,77.23
2023-03-26T07:41:07.257Z,77.25
2023-03-26T07:46:13.804Z,76.82
2023-03-26T07:51:21.327Z,76.61
2023-03-26T07:56:57.999Z,75.90
2023-03-26T08:02:45.088Z,75.45
2023-03-26T08:08:11.350Z,75.61
2023-03-26T08:13:40.050Z,74.83
2023-03-26T08:18:54.800Z,74.52
2023-03-26T08:24:14.623Z,74.58
2023-03-26T08:29:37.693Z,74.54
2023-03-26T08:34:42.841Z,74.47
2023-03-26T08:39:47.161Z,73.89
2023-03-26T08:45:13.166Z,73.83
2023-03-26T08:50:36.605Z,73.59
2023-03-26T08:55:52.125Z,72.43
2023-03-26T09:01:02.476Z,70.96
2023-03-26T09:06:23.622Z,70.82
2023-03-26T09:11:40.310Z,70.38
2023-03-26T09:17:01.217Z,69.55
2023-03-26T09:22:29.131Z,69.38
2023-03-26T09:27:52.281Z,69.72
2023-03-26T09:33:22.356Z,69.89
2023-03-26T09:38:44.204Z,70.52
2023-03-26T09:44:09.916Z,69.36
2023-03-26T09:49:17.839Z,68.61
2023-03-26T09:55:04.449Z,68.16
2023-03-26T10:00:43.854Z,67.83
2023-03-26T10:06:12.960Z,67.29
2023-03-26T10:11:43.776Z,66.90
2023-03-26T10:16:58.173Z,66.16
2023-03-26T10:22:50.271Z,65.71
2023-03-26T10:27:58.402Z,65.15
2023-03-26T10:33:18.486Z,65.37
2023-03-26T10:38:46.161Z,64.98
2023-03-26T10:44:12.145Z,65.30
2023-03-26T10:49:57.814Z,65.72
2023-03-26T10:55:21.546Z,66.46
2023-03-26T11:00:31.174Z,66.83
2023-03-26T11:05:49.396Z,67.77
2023-03-26T11:11:22.201Z,68.01
2023-03-26T11:16:58.205Z,67.71
2023-03-26T11:22:24.473Z,66.85
2023-03-26T11:27:44.985Z,66.45
2023-03-26T11:32:54.794Z,65.82
2023-03-26T11:38:07.010Z,65.42
2023-03-26T11:43:16.457Z,64.84
2023-03-26T11:49:00.561Z,64.70
2023-03-26T11:54:12.171Z,64.56
2023-03-26T11:59:25.074Z,64.53
2023-03-26T12:04:36.576Z,64.20
2023-03-26T12:09:51.895Z,63.50
2023-03-26T12:14:56.556Z,63.38
2023-03-26T12:20:02.917Z,63.18
2023-03-26T12:25:21.515Z,63.26
2023-03-26T12:30:31.106Z,63.81
2023-03-26T12:35:36.275Z,64.05
2023-03-26T12:40:43.798Z,63.79
2023-03-26T12:47:54.475Z,63.43
2023-03-26T12:51:37.019Z,62.93
2023-03-26T12:56:48.351Z,62.88
2023-03-26T13:02:39.851Z,62.42
2023-03-26T13:08:18.291Z,62.23
2023-03-26T13:13:35.137Z,62.13
2023-03-26T13:19:09.150Z,62.03
2023-03-26T13:24:37.751Z,62.66
2023-03-26T13:29:41.708Z,62.71
2023-03-26T13:34:54.145Z,62.44
2023-03-26T13:40:05.164Z,62.29
2023-03-26T13:45:18.979Z,62.54
2023-03-26T13:50:39.412Z,62.76
2023-03-26T13:55:50.694Z,62.34
2023-03-26T14:01:19.382Z,62.31
2023-03-26T14:06:46.965Z,62.52
2023-03-26T14:12:49.220Z,62.37
2023-03-26T14:18:31.774Z,62.28
2023-03-26T14:23:51.943Z,61.67
2023-03-26T14:29:38.690Z,62.06
2023-03-26T14:35:17.963Z,62.16
2023-03-26T14:40:30.817Z,62.16
2023-03-26T14:46:09.566Z,62.31
2023-03-26T14:52:02.136Z,63.08
2023-03-26T14:57:37.617Z,62.83
2023-03-26T15:02:45.137Z,62.62
2023-03-26T15:08:37.923Z,62.79
2023-03-26T15:13:45.343Z,62.87
2023-03-26T15:19:08.600Z,62.84
2023-03-26T15:24:29.256Z,62.89
2023-03-26T15:29:49.889Z,62.74
2023-03-26T15:35:20.180Z,62.43
2023-03-26T15:41:25.921Z,61.84
2023-03-26T15:47:11.817Z,62.10
2023-03-26T15:52:49.423Z,61.99
2023-03-26T15:58:03.261Z,61.72
2023-03-26T16:03:26.108Z,61.63
2023-03-26T16:08:53.632Z,61.42
2023-03-26T16:14:20.086Z,61.61
2023-03-26T16:19:53.028Z,61.52
2023-03-26T16:25:26.937Z,61.39
2023-03-26T16:30:34.428Z,61.55
2023-03-26T16:36:06.997Z,61.76
2023-03-26T16:41:46.562Z,61.93
2023-03-26T16:47:00.718Z,62.15
2023-03-26T16:52:09.814Z,62.44
2023-03-26T16:57:24.085Z,62.56
2023-03-26T17:02:52.733Z,62.84
2023-03-26T17:08:36.352Z,63.17
2023-03-26T17:14:04.253Z,63.54
2023-03-26T17:19:17.764Z,64.15
2023-03-26T17:24:54.216Z,64.61
2023-03-26T17:30:34.988Z,65.05
2023-03-26T17:35:43.823Z,65.54
2023-03-26T17:41:17.111Z,65.84
2023-03-26T17:46:43.699Z,66.02
2023-03-26T17:52:03.206Z,66.08
2023-03-26T17:57:31.193Z,66.32
2023-03-26T18:02:49.242Z,66.95
2023-03-26T18:08:06.938Z,67.05
2023-03-26T18:13:56.055Z,67.41
2023-03-26T18:19:18.913Z,68.03
2023-03-26T18:24:42.258Z,68.90
2023-03-26T18:30:01.821Z,69.31
2023-03-26T18:35:22.416Z,69.32
2023-03-26T18:40:34.684Z,69.64
2023-03-26T18:45:39.995Z,69.94
2023-03-26T18:50:44.484Z,69.92
2023-03-26T18:55:51.186Z,70.07
2023-03-26T19:00:59.504Z,70.28
2023-03-26T19:06:09.027Z,70.55
2023-03-26T19:11:16.860Z,70.86
2023-03-26T19:16:30.269Z,70.82
2023-03-26T19:21:36.874Z,71.32
2023-03-26T19:26:42.067Z,71.18
2023-03-26T19:31:54.133Z,71.31
2023-03-26T19:37:06.276Z,71.50
2023-03-26T19:42:43.270Z,71.70
2023-03-26T19:48:03.682Z,71.74
2023-03-26T19:53:25.855Z,72.05
2023-03-26T19:58:30.239Z,72.43
2023-03-26T20:03:42.075Z,72.23
2023-03-26T20:08:51.466Z,72.70
2023-03-26T20:13:56.566Z,73.26
2023-03-26T20:19:05.787Z,73.46
2023-03-26T20:24:17.201Z,73.86
2023-03-26T20:29:21.195Z,74.41
2023-03-26T20:34:26.962Z,74.74
2023-03-26T20:39:30.729Z,74.95
2023-03-26T20:44:35.684Z,75.48
2023-03-26T20:49:40.532Z,75.55
2023-03-26T20:54:45.037Z,75.94
2023-03-26T20:59:50.759Z,76.35
2023-03-26T21:04:57.613Z,76.63
2023-03-26T21:10:06.223Z,77.24
2023-03-26T21:15:20.854Z,76.89
2023-03-26T21:20:33.326Z,77.11
2023-03-26T21:26:02.521Z,77.05
2023-03-26T21:31:09.110Z,77.24
2023-03-26T21:36:13.943Z,77.44
2023-03-26T21:41:25.208Z,77.18
2023-03-26T21:46:30.492Z,77.18
2023-03-26T21:51:35.182Z,77.53
2023-03-26T21:57:07.368Z,77.76
2023-03-26T22:02:31.164Z,78.10
2023-03-26T22:07:52.961Z,78.17
2023-03-26T22:12:59.460Z,78.40
2023-03-26T22:18:15.672Z,78.76
2023-03-26T22:23:20.640Z,78.80
2023-03-26T22:28:24.481Z,78.82
2023-03-26T22:33:28.323Z,78.89
2023-03-26T22:38:32.857Z,79.37
2023-03-26T22:43:38.927Z,79.03
2023-03-26T22:48:42.511Z,79.47
2023-03-26T22:53:47.957Z,79.23
2023-03-26T22:58:52.442Z,79.25
2023-03-26T23:03:58.616Z,79.24
2023-03-26T23:09:04.401Z,79.11
2023-03-26T23:14:09.244Z,79.66
2023-03-26T23:19:13.848Z,79.39
2023-03-26T23:24:21.224Z,79.36
2023-03-26T23:29:25.495Z,79.29
2023-03-26T23:34:30.081Z,79.44
2023-03-26T23:39:34.952Z,79.41
2023-03-26T23:44:41.218Z,79.78
2023-03-26T23:49:45.748Z,79.21
2023-03-26T23:54:50.592Z,79.32
2023-03-26T23:59:56.191Z,79.50
